Pagrindinis puslapis
METAR-TAF:

METAR-TAF

Oro uostai :

Kosraė, Mikronezija

platuma: 05-21N, ilguma: 162-57E, Aukštis: 3 m

METAR: trūkstamas

Laikas: 17:57 (06:57 UTC)

Prognozė

Ataskaita buvo paskelbta 29 valandos ir 23 minutes, ne 01:34 UTC
Prognozė galioja nuo 09 metu 02 UTC su 09 metu 24 UTC
Vėjas 11 kt iš Rytų/Šiaurės Rytų
Matomumas: 10 km
Išsisklaidę debesys ne aukštis 2000 ft
Liūtis kaimynystėje
Laikinai
nuo 09 metu 02 UTC su 09 metu 06 UTC
Matomumas: 8.0 km
Su prošvaistėmis ne aukštis 1600 ft
lietus

TAF: PTSA 090134Z 0902/0924 06011KT P6SM VCSH SCT020 TEMPO 0902/0906 5SM -SHRA BKN016

Orai ataskaitas ir orų prognozės (METAR, TAF).

turimą stotys yra geltonos ir raudonos taškus žemėlapyje.

Perkelti pele per norėdami pamatyti stoties vardą.

Tada spustelėkite, norėdami matyti oro stebėjimo ir prognozės.

Norėdami pakeisti žemėlapį: spustelėkite ant žalios mygtukų su juodo kryžiaus žemyn,; žalią mygtuką su brūkšneliu, jei norite nutolinti; arba žalių rodyklių gretimoms žemėlapius.


METAR-TAF: